Time;durP1;ratioP1;P1;durP2;ratioP2;P2;SDS_P1;SDS_P2;PMS_P1;PMS_P2;Temp;Humidity;BMP_temperature;BMP_pressure;BME280_temperature;BME280_humidity;BME280_pressure;Samples;Min_cycle;Max_cycle;Signal;HPM_P1;HPM_P2
2022/02/08 00:01:28;;;;;;;22.03;4.00;;;4.40;87.20;;;;;;5062370;28;20226;-93
2022/02/08 00:03:53;;;;;;;13.13;3.17;;;4.30;87.50;;;;;;5048333;28;20168;-94
2022/02/08 00:08:45;;;;;;;9.00;3.30;;;4.30;87.40;;;;;;5075329;28;20199;-94
2022/02/08 00:11:19;;;;;;;18.47;4.10;;;4.30;87.40;;;;;;5060541;28;20187;-94
2022/02/08 00:13:53;;;;;;;11.33;4.43;;;4.30;87.50;;;;;;5059914;28;20198;-94
2022/02/08 00:16:45;;;;;;;12.33;4.07;;;4.30;87.40;;;;;;5060720;28;20219;-95
2022/02/08 00:19:23;;;;;;;12.00;3.20;;;4.30;87.30;;;;;;5061123;28;20160;-95
2022/02/08 00:21:52;;;;;;;14.50;3.33;;;4.30;87.10;;;;;;5060167;28;20238;-95
2022/02/08 01:21:19;;;;;;;19.40;5.17;;;4.50;88.80;;;;;;5038040;28;20220;-93
2022/02/08 01:24:05;;;;;;;15.47;4.43;;;4.50;89.00;;;;;;5026344;28;20178;-93
2022/02/08 01:26:43;;;;;;;15.53;3.47;;;4.50;89.30;;;;;;5036628;28;20180;-92
2022/02/08 01:35:08;;;;;;;18.10;4.93;;;4.50;89.90;;;;;;5049438;28;20165;-92
2022/02/08 01:40:17;;;;;;;24.17;6.00;;;4.60;90.00;;;;;;5041585;28;20162;-93
2022/02/08 01:43:34;;;;;;;27.20;6.27;;;4.60;90.20;;;;;;5023929;28;20212;-93
2022/02/08 01:48:39;;;;;;;24.43;5.70;;;4.50;90.50;;;;;;5040404;28;20652;-93
2022/02/08 01:50:59;;;;;;;27.73;6.87;;;4.50;90.70;;;;;;5039602;28;20198;-92
2022/02/08 01:53:25;;;;;;;21.17;5.30;;;4.60;90.90;;;;;;5023096;28;20208;-93
2022/02/08 01:55:51;;;;;;;18.87;5.70;;;4.60;91.30;;;;;;5023220;28;20236;-92
2022/02/08 01:58:20;;;;;;;18.00;6.03;;;4.50;91.80;;;;;;5022539;28;20177;-93
2022/02/08 02:00:46;;;;;;;13.87;5.03;;;4.50;92.10;;;;;;5023244;28;20196;-93
2022/02/08 02:03:11;;;;;;;16.20;6.70;;;4.40;92.60;;;;;;5022171;28;20602;-93
2022/02/08 02:05:37;;;;;;;26.73;6.87;;;4.40;92.80;;;;;;5023177;28;20575;-92
2022/02/08 02:08:03;;;;;;;17.80;7.07;;;4.40;92.80;;;;;;5022169;28;20188;-93
2022/02/08 02:10:28;;;;;;;17.10;5.60;;;4.40;92.90;;;;;;5021024;28;20177;-93
2022/02/08 02:13:01;;;;;;;26.73;8.43;;;4.40;93.10;;;;;;5021322;28;20183;-93
2022/02/08 02:15:28;;;;;;;26.90;9.53;;;4.50;93.10;;;;;;5020805;28;20208;-92
2022/02/08 02:17:54;;;;;;;20.47;6.63;;;4.50;93.10;;;;;;5021763;28;20236;-93
2022/02/08 02:20:21;;;;;;;30.63;8.37;;;4.50;93.00;;;;;;5022179;28;20251;-92
2022/02/08 02:22:47;;;;;;;22.33;9.13;;;4.50;93.10;;;;;;5021600;28;20270;-93
2022/02/08 02:25:24;;;;;;;23.83;7.33;;;4.50;93.10;;;;;;5023025;28;20226;-93
2022/02/08 02:27:54;;;;;;;18.00;8.83;;;4.50;93.20;;;;;;5022601;28;20178;-93
2022/02/08 02:30:24;;;;;;;27.53;10.40;;;4.60;93.10;;;;;;5022794;28;20174;-92
2022/02/08 02:32:49;;;;;;;22.57;8.23;;;4.60;93.10;;;;;;5022504;28;20518;-93
2022/02/08 02:35:15;;;;;;;25.97;9.43;;;4.60;93.00;;;;;;5021434;28;20189;-92
2022/02/08 02:37:41;;;;;;;26.40;8.60;;;4.70;92.90;;;;;;5022569;28;20179;-93
2022/02/08 02:40:12;;;;;;;16.73;8.53;;;4.70;92.80;;;;;;5023460;28;20191;-92
2022/02/08 02:42:43;;;;;;;23.83;8.60;;;4.70;92.70;;;;;;5024467;28;20210;-93
2022/02/08 02:45:13;;;;;;;16.83;8.87;;;4.80;92.70;;;;;;5023337;28;20181;-93
2022/02/08 02:47:38;;;;;;;21.47;10.03;;;4.80;92.60;;;;;;5024082;28;20215;-93
2022/02/08 02:50:05;;;;;;;15.33;7.17;;;4.80;92.50;;;;;;5023554;28;20178;-93
2022/02/08 02:52:31;;;;;;;34.07;11.57;;;4.90;92.40;;;;;;5024406;28;20667;-92
2022/02/08 02:54:56;;;;;;;19.77;8.60;;;4.90;92.40;;;;;;5023513;28;20197;-92
2022/02/08 02:57:24;;;;;;;20.50;9.77;;;4.90;92.40;;;;;;5024144;28;20214;-93
2022/02/08 03:00:00;;;;;;;20.70;10.23;;;4.90;92.30;;;;;;5024406;28;20222;-93
2022/02/08 03:20:48;;;;;;;21.80;11.30;;;5.20;92.10;;;;;;5041910;28;20295;-93
2022/02/08 03:23:17;;;;;;;17.70;9.53;;;5.10;92.10;;;;;;5024488;28;20203;-93
2022/02/08 03:25:43;;;;;;;20.63;11.93;;;5.20;92.20;;;;;;5023512;28;20274;-93
2022/02/08 03:28:08;;;;;;;26.77;13.20;;;5.30;92.10;;;;;;5042996;28;20199;-93
2022/02/08 03:30:34;;;;;;;31.47;13.97;;;5.30;92.00;;;;;;5025020;28;20247;-94
2022/02/08 03:33:08;;;;;;;22.23;11.77;;;5.30;92.10;;;;;;5023843;28;20182;-93
2022/02/08 03:35:33;;;;;;;22.67;11.50;;;5.30;92.10;;;;;;5025876;28;20210;-93
2022/02/08 03:38:00;;;;;;;23.57;13.37;;;5.30;92.20;;;;;;5024573;28;20644;-93
2022/02/08 03:43:15;;;;;;;26.43;12.07;;;5.40;92.10;;;;;;5042192;28;20322;-93
2022/02/08 03:45:47;;;;;;;37.90;13.70;;;5.50;92.20;;;;;;5024279;28;20172;-93
2022/02/08 03:48:21;;;;;;;26.20;13.83;;;5.50;92.10;;;;;;5023308;28;20183;-92
2022/02/08 03:50:55;;;;;;;25.60;12.97;;;5.60;92.10;;;;;;5026099;28;20207;-91
2022/02/08 03:53:26;;;;;;;27.23;13.73;;;5.60;92.10;;;;;;5025597;28;20174;-92
2022/02/08 03:55:52;;;;;;;27.33;12.63;;;5.60;92.10;;;;;;5025289;28;20213;-92
2022/02/08 03:58:23;;;;;;;23.77;11.07;;;5.60;92.10;;;;;;5024024;28;20187;-93
2022/02/08 04:01:15;;;;;;;19.73;10.77;;;5.70;92.20;;;;;;5024620;28;20199;-91
2022/02/08 04:03:50;;;;;;;30.97;14.50;;;5.70;92.10;;;;;;5042106;28;20209;-92
2022/02/08 04:06:16;;;;;;;24.60;14.10;;;5.80;92.10;;;;;;5023341;28;20257;-93
2022/02/08 04:08:41;;;;;;;24.40;12.33;;;5.80;92.30;;;;;;5022557;28;20226;-92
2022/02/08 04:11:08;;;;;;;27.87;15.13;;;5.80;92.40;;;;;;5023328;28;20207;-93
2022/02/08 04:13:48;;;;;;;33.20;14.40;;;5.80;92.30;;;;;;5024712;28;20176;-92
2022/02/08 04:16:37;;;;;;;24.97;14.70;;;5.80;92.40;;;;;;5024220;28;20191;-92
2022/02/08 04:35:36;;;;;;;30.37;18.20;;;6.00;92.60;;;;;;5048771;28;20156;-92
2022/02/08 04:40:51;;;;;;;22.17;11.53;;;6.10;92.60;;;;;;5048906;28;20227;-92
2022/02/08 04:43:33;;;;;;;25.03;15.13;;;6.10;92.60;;;;;;5032454;28;20207;-93
2022/02/08 04:46:03;;;;;;;33.97;18.57;;;6.20;92.60;;;;;;5029539;28;20209;-92
2022/02/08 04:51:19;;;;;;;27.30;18.37;;;6.20;92.60;;;;;;5048891;28;20259;-92
2022/02/08 04:59:51;;;;;;;32.27;17.53;;;6.30;92.60;;;;;;5043406;28;20157;-93
2022/02/08 05:35:20;;;;;;;29.00;17.20;;;6.40;93.20;;;;;;5045265;28;20247;-92
2022/02/08 05:47:48;;;;;;;30.03;18.37;;;6.40;93.40;;;;;;5044422;28;20202;-91
2022/02/08 05:55:23;;;;;;;27.57;17.93;;;6.50;93.50;;;;;;5046076;28;20179;-92
2022/02/08 05:57:51;;;;;;;28.53;19.10;;;6.50;93.50;;;;;;5027830;28;20185;-92
2022/02/08 06:00:26;;;;;;;35.83;21.80;;;6.50;93.60;;;;;;5028863;28;20176;-92
2022/02/08 06:02:51;;;;;;;30.10;20.17;;;6.60;93.60;;;;;;5029070;28;20203;-92
2022/02/08 06:05:20;;;;;;;28.23;17.27;;;6.60;93.60;;;;;;5044929;28;20169;-93
2022/02/08 06:07:46;;;;;;;33.17;20.83;;;6.60;93.60;;;;;;5028434;28;20267;-92
2022/02/08 06:10:12;;;;;;;40.33;18.73;;;6.60;93.60;;;;;;5027566;28;20197;-92
2022/02/08 06:12:55;;;;;;;35.53;20.03;;;6.60;93.60;;;;;;5026069;28;20201;-92
2022/02/08 06:15:23;;;;;;;32.10;20.10;;;6.60;93.60;;;;;;5028899;28;20181;-92
2022/02/08 06:17:57;;;;;;;30.27;19.70;;;6.70;93.50;;;;;;5030050;28;20184;-92
2022/02/08 06:20:23;;;;;;;32.97;20.23;;;6.70;93.60;;;;;;5027507;28;20195;-93
2022/02/08 06:22:52;;;;;;;35.00;20.53;;;6.70;93.60;;;;;;5025406;28;20213;-92
2022/02/08 06:25:26;;;;;;;27.07;17.67;;;6.70;93.60;;;;;;5026219;28;20185;-93
2022/02/08 06:27:51;;;;;;;40.10;22.27;;;6.80;93.60;;;;;;5024413;28;20193;-93
2022/02/08 06:30:22;;;;;;;33.03;21.43;;;6.80;93.50;;;;;;5024824;28;20234;-92
2022/02/08 06:32:50;;;;;;;31.13;20.23;;;6.80;93.50;;;;;;5025277;28;20197;-92
2022/02/08 06:35:20;;;;;;;33.07;19.77;;;6.80;93.50;;;;;;5025102;28;20211;-92
2022/02/08 06:37:46;;;;;;;34.20;22.43;;;6.90;93.50;;;;;;5026030;28;20173;-92
2022/02/08 06:40:24;;;;;;;40.63;21.43;;;6.90;93.50;;;;;;5025733;28;20177;-93
2022/02/08 06:42:50;;;;;;;43.60;23.00;;;6.90;93.40;;;;;;5026455;28;20196;-93
2022/02/08 06:45:20;;;;;;;39.13;23.73;;;7.00;93.50;;;;;;5025635;28;20764;-93
2022/02/08 06:48:03;;;;;;;30.97;19.77;;;7.00;93.40;;;;;;5022453;28;20161;-92
2022/02/08 06:50:30;;;;;;;33.63;19.57;;;7.10;93.50;;;;;;5043867;28;20157;-92
2022/02/08 06:52:56;;;;;;;36.27;19.73;;;7.10;93.40;;;;;;5027009;28;20180;-92
2022/02/08 06:55:24;;;;;;;36.77;22.47;;;7.20;93.30;;;;;;5025271;28;20185;-92
2022/02/08 06:58:01;;;;;;;41.40;22.67;;;7.30;93.10;;;;;;5026438;28;20181;-92
2022/02/08 07:00:39;;;;;;;31.03;20.43;;;7.30;93.10;;;;;;5025700;28;20169;-92
2022/02/08 07:03:11;;;;;;;45.93;23.27;;;7.30;93.20;;;;;;5027894;28;20658;-92
2022/02/08 07:05:59;;;;;;;27.20;16.03;;;7.30;93.20;;;;;;5028014;28;20161;-92
2022/02/08 07:08:27;;;;;;;19.80;13.53;;;7.30;93.30;;;;;;5045867;28;20157;-93
2022/02/08 07:10:53;;;;;;;32.37;21.03;;;7.40;93.40;;;;;;5026072;28;20224;-94
2022/02/08 07:13:24;;;;;;;36.93;21.73;;;7.40;93.50;;;;;;5027432;28;20694;-92
2022/02/08 07:15:50;;;;;;;37.60;19.30;;;7.40;93.40;;;;;;5027822;28;20172;-92
2022/02/08 07:18:19;;;;;;;32.90;19.50;;;7.50;93.40;;;;;;5027120;28;20185;-92
2022/02/08 07:20:44;;;;;;;30.93;15.27;;;7.50;93.40;;;;;;5050523;22;20223;-90
2022/02/08 07:23:10;;;;;;;37.27;20.33;;;7.50;93.30;;;;;;5017406;28;20208;-91
2022/02/08 07:25:35;;;;;;;37.33;18.97;;;7.50;93.40;;;;;;5021083;28;20549;-91
2022/02/08 07:28:02;;;;;;;30.63;17.47;;;7.50;93.50;;;;;;5022029;28;20180;-91
2022/02/08 07:30:29;;;;;;;37.43;20.67;;;7.60;93.50;;;;;;5019833;28;20169;-91
2022/02/08 07:32:55;;;;;;;43.60;23.13;;;7.50;93.50;;;;;;5036463;28;20227;-91
2022/02/08 07:35:30;;;;;;;32.77;16.93;;;7.50;93.60;;;;;;5037606;28;20200;-91
2022/02/08 07:38:09;;;;;;;28.57;14.13;;;7.50;93.80;;;;;;5037819;28;20167;-91
2022/02/08 07:43:04;;;;;;;25.20;15.27;;;7.50;94.00;;;;;;5056511;28;20238;-91
2022/02/08 07:45:30;;;;;;;44.37;19.53;;;7.60;94.20;;;;;;5038496;28;20168;-91
2022/02/08 07:47:56;;;;;;;34.57;19.57;;;7.60;94.30;;;;;;5037944;28;20179;-91
2022/02/08 07:50:23;;;;;;;34.17;21.17;;;7.60;94.40;;;;;;5039525;28;20184;-91
2022/02/08 07:52:52;;;;;;;21.87;12.37;;;7.60;94.40;;;;;;5039086;28;20711;-91
2022/02/08 07:55:19;;;;;;;21.77;13.17;;;7.60;94.50;;;;;;5039919;28;20182;-91
2022/02/08 07:57:44;;;;;;;28.83;16.57;;;7.70;94.70;;;;;;5042430;28;20190;-89
2022/02/08 08:00:11;;;;;;;29.77;16.83;;;7.60;94.70;;;;;;5046232;28;20270;-92
2022/02/08 08:02:37;;;;;;;31.50;15.30;;;7.70;94.80;;;;;;5045347;28;20207;-92
2022/02/08 08:05:07;;;;;;;28.73;16.33;;;7.70;94.90;;;;;;5049598;28;20278;-91
2022/02/08 08:07:32;;;;;;;39.00;17.70;;;7.60;94.90;;;;;;5052058;28;20282;-91
2022/02/08 08:10:01;;;;;;;27.03;16.57;;;7.70;95.00;;;;;;5046926;28;20630;-89
2022/02/08 08:12:27;;;;;;;28.90;16.53;;;7.60;95.00;;;;;;5039243;28;20685;-90
2022/02/08 08:14:54;;;;;;;20.53;12.33;;;7.70;95.10;;;;;;5058478;28;20198;-87
2022/02/08 08:19:55;;;;;;;33.57;17.83;;;7.70;95.20;;;;;;5060651;28;20170;-90
2022/02/08 08:22:21;;;;;;;32.90;18.53;;;7.70;95.20;;;;;;5061066;28;20587;-91
2022/02/08 08:24:47;;;;;;;32.53;18.03;;;7.70;95.20;;;;;;5056045;28;20196;-91
2022/02/08 08:27:14;;;;;;;24.63;13.97;;;7.80;95.30;;;;;;5077633;28;20188;-92
2022/02/08 08:29:41;;;;;;;36.33;17.33;;;7.80;95.30;;;;;;5061803;28;20184;-90
2022/02/08 08:32:07;;;;;;;27.10;14.60;;;7.80;95.30;;;;;;5060383;28;20210;-92
2022/02/08 08:34:34;;;;;;;38.07;18.97;;;7.80;95.30;;;;;;5062752;28;20179;-92
2022/02/08 08:37:00;;;;;;;21.37;12.87;;;7.80;95.30;;;;;;5050037;28;20184;-91
2022/02/08 08:39:36;;;;;;;25.07;12.13;;;7.90;95.30;;;;;;5041282;28;20184;-91
2022/02/08 08:50:11;;;;;;;16.53;10.07;;;8.00;95.20;;;;;;5038902;28;20206;-89
2022/02/08 08:52:42;;;;;;;24.40;14.27;;;8.00;95.20;;;;;;5038434;28;20204;-89
2022/02/08 08:55:10;;;;;;;36.53;16.10;;;8.00;95.20;;;;;;5039233;28;20187;-89
2022/02/08 08:57:35;;;;;;;23.67;14.53;;;8.00;95.20;;;;;;5040229;28;20184;-90
2022/02/08 09:00:04;;;;;;;29.17;12.67;;;8.10;95.20;;;;;;5044099;28;20551;-89
2022/02/08 09:02:29;;;;;;;25.17;13.83;;;8.10;95.20;;;;;;5043526;28;20208;-91
2022/02/08 09:04:55;;;;;;;26.30;11.73;;;8.00;95.20;;;;;;5046944;28;20187;-90
2022/02/08 09:07:22;;;;;;;20.53;10.73;;;8.10;95.20;;;;;;5067618;28;20226;-91
2022/02/08 09:09:53;;;;;;;19.80;10.23;;;8.10;95.30;;;;;;5052623;28;20172;-91
2022/02/08 09:22:38;;;;;;;15.83;8.50;;;8.20;95.20;;;;;;5057556;28;20579;-89
2022/02/08 09:25:40;;;;;;;17.27;8.53;;;8.20;95.20;;;;;;5039112;28;20210;-89
2022/02/08 09:30:49;;;;;;;16.33;6.93;;;8.20;95.10;;;;;;5059255;28;20167;-88
2022/02/08 09:33:15;;;;;;;19.53;8.90;;;8.20;95.00;;;;;;5046238;28;20171;-91
2022/02/08 09:35:40;;;;;;;13.80;6.90;;;8.30;95.00;;;;;;5067891;28;20176;-91
2022/02/08 09:38:06;;;;;;;8.47;5.53;;;8.30;95.00;;;;;;5045306;28;20677;-91
2022/02/08 09:40:31;;;;;;;18.73;6.10;;;8.30;94.90;;;;;;5044914;28;20179;-92
2022/02/08 09:42:58;;;;;;;21.37;8.63;;;8.30;94.90;;;;;;5041575;28;20629;-91
2022/02/08 09:45:25;;;;;;;11.07;5.97;;;8.30;94.80;;;;;;5062089;28;20630;-87
2022/02/08 09:48:13;;;;;;;18.83;8.57;;;8.30;94.70;;;;;;5042829;28;20266;-88
2022/02/08 09:50:40;;;;;;;14.00;6.57;;;8.30;94.70;;;;;;5042127;28;20169;-88
2022/02/08 09:53:12;;;;;;;13.63;8.20;;;8.30;94.70;;;;;;5041717;28;20180;-87
2022/02/08 09:55:40;;;;;;;19.20;7.57;;;8.30;94.60;;;;;;5042481;28;20558;-88
2022/02/08 09:58:07;;;;;;;17.10;7.63;;;8.30;94.60;;;;;;5042109;28;20172;-88
2022/02/08 10:00:35;;;;;;;17.30;7.43;;;8.30;94.60;;;;;;5042536;28;20601;-88
2022/02/08 10:03:09;;;;;;;13.57;7.00;;;8.30;94.50;;;;;;5043815;28;20282;-88
2022/02/08 10:05:53;;;;;;;17.73;6.30;;;8.30;94.40;;;;;;5058578;28;20160;-88
2022/02/08 10:08:20;;;;;;;13.43;7.30;;;8.30;94.50;;;;;;5038481;28;20221;-88
2022/02/08 10:10:46;;;;;;;21.27;7.93;;;8.30;94.50;;;;;;5058456;28;20164;-88
2022/02/08 10:13:58;;;;;;;15.77;7.27;;;8.30;94.60;;;;;;5040115;28;20176;-88
2022/02/08 10:19:40;;;;;;;7.67;5.13;;;8.30;94.70;;;;;;5058999;28;20179;-88
2022/02/08 10:22:05;;;;;;;13.50;5.97;;;8.30;94.80;;;;;;5057844;28;20218;-87
2022/02/08 10:24:32;;;;;;;19.80;7.53;;;8.30;94.80;;;;;;5040470;28;20184;-88
2022/02/08 10:27:03;;;;;;;16.40;5.83;;;8.30;94.80;;;;;;5040804;28;20179;-88
2022/02/08 10:29:55;;;;;;;28.97;7.97;;;8.30;94.80;;;;;;5041346;28;20164;-88
2022/02/08 10:37:48;;;;;;;23.03;7.53;;;8.30;94.80;;;;;;5057061;28;20164;-88
2022/02/08 10:40:17;;;;;;;23.63;5.97;;;8.30;94.80;;;;;;5038341;28;20168;-90
2022/02/08 10:42:50;;;;;;;25.93;7.47;;;8.30;94.80;;;;;;5054860;28;20622;-89
2022/02/08 10:45:24;;;;;;;15.30;6.93;;;8.30;94.80;;;;;;5038552;28;20163;-89
2022/02/08 10:48:02;;;;;;;15.10;5.93;;;8.30;94.80;;;;;;5038253;28;20168;-89
2022/02/08 10:50:30;;;;;;;18.73;6.23;;;8.30;94.80;;;;;;5038721;28;20164;-89
2022/02/08 10:52:58;;;;;;;26.70;7.30;;;8.30;94.80;;;;;;5039951;28;20223;-89
2022/02/08 11:00:38;;;;;;;15.90;6.00;;;8.20;95.00;;;;;;5058900;28;20160;-90
2022/02/08 11:03:09;;;;;;;18.00;5.47;;;8.30;95.00;;;;;;5040093;28;20203;-90
2022/02/08 11:05:55;;;;;;;30.30;8.10;;;8.20;95.00;;;;;;5041405;28;20196;-90
2022/02/08 11:11:18;;;;;;;19.37;6.57;;;8.30;95.10;;;;;;5059270;28;20180;-90
2022/02/08 11:16:44;;;;;;;24.33;6.67;;;8.30;95.20;;;;;;5056045;28;20169;-90
2022/02/08 11:24:50;;;;;;;16.10;6.10;;;8.30;95.20;;;;;;5001368;28;20189;-89
2022/02/08 11:27:19;;;;;;;24.00;7.77;;;8.30;95.20;;;;;;5037704;28;20172;-88
2022/02/08 11:29:55;;;;;;;20.13;6.60;;;8.30;95.30;;;;;;5037097;28;20233;-89
2022/02/08 11:32:33;;;;;;;23.10;6.87;;;8.30;95.30;;;;;;5036847;28;20274;-89
2022/02/08 11:44:34;;;;;;;23.50;7.17;;;8.30;95.40;;;;;;5056230;28;20223;-89
2022/02/08 11:52:03;;;;;;;14.30;4.83;;;8.40;95.40;;;;;;5055194;28;20200;-89
2022/02/08 12:07:44;;;;;;;27.93;7.10;;;8.40;95.50;;;;;;5054561;28;20183;-89
2022/02/08 12:10:21;;;;;;;28.83;6.60;;;8.40;95.50;;;;;;5037791;28;20172;-89
2022/02/08 12:13:55;;;;;;;17.80;5.70;;;8.40;95.50;;;;;;5038084;28;20207;-90
2022/02/08 12:28:12;;;;;;;16.00;4.97;;;8.50;95.50;;;;;;5054619;28;20171;-89
2022/02/08 12:54:29;;;;;;;22.00;6.13;;;8.50;95.40;;;;;;5019479;28;20258;-91
2022/02/08 12:57:10;;;;;;;23.97;7.53;;;8.50;95.40;;;;;;5009106;28;20173;-92
2022/02/08 12:59:47;;;;;;;19.23;5.87;;;8.50;95.30;;;;;;5004696;28;20173;-91
2022/02/08 13:05:39;;;;;;;18.23;5.93;;;8.50;95.30;;;;;;5023211;28;20527;-91
2022/02/08 13:19:42;;;;;;;21.47;6.10;;;8.50;95.30;;;;;;5019623;28;20308;-90
2022/02/08 14:02:31;;;;;;;9.43;4.47;;;8.50;95.40;;;;;;5055297;28;20245;-93
2022/02/08 14:05:33;;;;;;;6.17;3.20;;;8.60;95.50;;;;;;5038076;28;20168;-93
2022/02/08 14:07:59;;;;;;;9.27;3.50;;;8.50;95.40;;;;;;5055339;28;20187;-91
2022/02/08 14:11:20;;;;;;;6.17;3.13;;;8.50;95.40;;;;;;5055759;28;20155;-92
2022/02/08 14:21:38;;;;;;;8.70;3.23;;;8.50;95.40;;;;;;5054617;28;20160;-91
2022/02/08 14:29:35;;;;;;;4.27;3.00;;;8.40;95.40;;;;;;5054849;28;20187;-91
2022/02/08 14:34:44;;;;;;;6.57;3.07;;;8.40;95.40;;;;;;5054406;28;20661;-91
2022/02/08 15:00:10;;;;;;;4.93;2.87;;;8.30;95.40;;;;;;5054298;28;20274;-91
2022/02/08 15:09:38;;;;;;;4.07;3.40;;;8.30;95.40;;;;;;5053592;28;20176;-91
2022/02/08 15:14:35;;;;;;;8.80;3.43;;;8.30;95.30;;;;;;5053873;28;20172;-91
2022/02/08 15:17:01;;;;;;;6.30;3.07;;;8.30;95.30;;;;;;5035697;28;20180;-91
2022/02/08 15:19:27;;;;;;;6.53;3.50;;;8.30;95.30;;;;;;5036486;28;20180;-92
2022/02/08 15:21:52;;;;;;;8.80;3.80;;;8.30;95.30;;;;;;5053353;28;20215;-92
2022/02/08 15:24:18;;;;;;;5.53;3.50;;;8.30;95.30;;;;;;5035822;28;20664;-91
2022/02/08 15:26:47;;;;;;;7.20;3.70;;;8.30;95.30;;;;;;5035821;28;20222;-92
2022/02/08 15:29:14;;;;;;;10.67;4.13;;;8.30;95.30;;;;;;5035671;28;20180;-92
2022/02/08 15:39:24;;;;;;;10.17;4.00;;;8.30;95.30;;;;;;5018634;28;20209;-92
2022/02/08 15:41:50;;;;;;;7.30;3.63;;;8.30;95.40;;;;;;4990267;28;20647;-90
2022/02/08 15:44:23;;;;;;;10.17;4.53;;;8.20;95.40;;;;;;4993125;28;20776;-89
2022/02/08 15:46:51;;;;;;;7.17;4.40;;;8.20;95.40;;;;;;4992822;28;20174;-91
2022/02/08 15:49:16;;;;;;;12.30;5.17;;;8.20;95.40;;;;;;4993996;28;20166;-92
2022/02/08 15:54:17;;;;;;;8.90;4.53;;;8.20;95.50;;;;;;5007647;28;20167;-93
2022/02/08 16:07:13;;;;;;;9.80;4.63;;;8.10;95.60;;;;;;4994135;28;20208;-91
2022/02/08 16:09:48;;;;;;;9.23;4.60;;;8.10;95.60;;;;;;4993803;28;20147;-92
2022/02/08 16:17:51;;;;;;;17.10;5.27;;;8.00;95.60;;;;;;4994340;28;20532;-91
2022/02/08 16:20:36;;;;;;;15.27;5.77;;;8.00;95.60;;;;;;4976644;28;20202;-92
2022/02/08 16:33:14;;;;;;;23.47;7.20;;;7.90;95.30;;;;;;4997406;28;20198;-91
2022/02/08 16:54:54;;;;;;;31.37;7.40;;;7.90;95.10;;;;;;4997723;28;20169;-92
2022/02/08 16:57:32;;;;;;;24.97;7.10;;;7.90;95.20;;;;;;4980476;28;20232;-91
2022/02/08 17:00:01;;;;;;;23.47;6.90;;;7.90;95.20;;;;;;4979575;28;20202;-92
2022/02/08 17:02:29;;;;;;;18.57;6.53;;;7.90;95.20;;;;;;4979934;28;20213;-92
2022/02/08 17:04:54;;;;;;;11.97;5.50;;;7.90;95.30;;;;;;4979954;28;20178;-92
2022/02/08 17:07:21;;;;;;;18.50;5.80;;;7.90;95.30;;;;;;4979947;28;20196;-92
2022/02/08 17:09:58;;;;;;;15.67;5.43;;;7.80;95.40;;;;;;4999189;28;20519;-92
2022/02/08 17:12:38;;;;;;;13.85;5.03;;;7.90;95.40;;;;;;4981023;28;20424;-91
2022/02/08 17:34:32;;;;;;;6.83;4.70;;;7.80;95.50;;;;;;4997370;28;20162;-92
2022/02/08 17:49:37;;;;;;;12.50;6.43;;;7.80;95.50;;;;;;4996868;28;20165;-92
2022/02/08 17:52:03;;;;;;;9.93;5.57;;;7.80;95.50;;;;;;4996010;28;20198;-91
2022/02/08 17:54:28;;;;;;;8.93;5.53;;;7.80;95.50;;;;;;4978608;28;20567;-91
2022/02/08 17:56:56;;;;;;;6.43;4.87;;;7.80;95.50;;;;;;4978889;28;20181;-91
2022/02/08 17:59:24;;;;;;;11.63;5.23;;;7.80;95.50;;;;;;4995997;28;20166;-91
2022/02/08 18:01:50;;;;;;;7.03;4.90;;;7.80;95.50;;;;;;4995481;28;20186;-91
2022/02/08 18:04:17;;;;;;;7.70;5.43;;;7.80;95.50;;;;;;4995939;28;20598;-91
2022/02/08 18:06:43;;;;;;;7.33;5.43;;;7.90;95.50;;;;;;4995599;28;20209;-91
2022/02/08 18:09:08;;;;;;;9.87;5.70;;;7.80;95.50;;;;;;4995570;28;20206;-91
2022/02/08 18:11:39;;;;;;;8.13;5.13;;;7.80;95.50;;;;;;4995560;28;20659;-91
2022/02/08 18:14:08;;;;;;;10.80;6.67;;;7.80;95.50;;;;;;4978249;28;20202;-92
2022/02/08 18:16:37;;;;;;;14.67;6.50;;;7.80;95.50;;;;;;4978088;28;20186;-91
2022/02/08 18:19:12;;;;;;;14.07;7.87;;;7.90;95.50;;;;;;4978311;28;20644;-91
2022/02/08 18:21:52;;;;;;;12.60;7.23;;;7.90;95.50;;;;;;4977920;28;20582;-91
2022/02/08 18:24:45;;;;;;;13.57;7.80;;;7.90;95.60;;;;;;4978793;28;20201;-91
2022/02/08 19:07:18;;;;;;;6.93;5.47;;;7.90;95.80;;;;;;4995313;28;20240;-90
2022/02/08 19:09:50;;;;;;;8.27;5.63;;;7.90;95.80;;;;;;4978258;28;20177;-90
2022/02/08 19:12:30;;;;;;;8.73;5.63;;;7.90;95.80;;;;;;4977009;28;20206;-90
2022/02/08 19:19:52;;;;;;;9.97;6.00;;;7.90;95.90;;;;;;4994677;28;20201;-91
2022/02/08 19:22:18;;;;;;;7.97;5.90;;;7.90;96.00;;;;;;4977166;28;20755;-90
2022/02/08 19:24:46;;;;;;;8.50;6.27;;;7.90;96.00;;;;;;4977695;28;20220;-91
2022/02/08 19:27:13;;;;;;;8.97;5.80;;;7.90;96.00;;;;;;4977031;28;20174;-90
2022/02/08 19:29:39;;;;;;;9.40;5.93;;;7.90;96.00;;;;;;4976942;28;20596;-91
2022/02/08 19:32:08;;;;;;;10.20;6.33;;;7.90;96.00;;;;;;4976774;28;20252;-91
2022/02/08 19:34:35;;;;;;;7.23;6.07;;;7.90;96.10;;;;;;4977056;28;20178;-91
2022/02/08 19:37:05;;;;;;;8.00;6.60;;;7.90;96.00;;;;;;4976859;28;20636;-91
2022/02/08 19:39:31;;;;;;;7.93;5.97;;;7.80;96.10;;;;;;4976888;28;20173;-91
2022/02/08 19:41:57;;;;;;;8.50;6.20;;;7.90;96.10;;;;;;4993968;28;20194;-91
2022/02/08 19:44:22;;;;;;;9.67;6.30;;;7.90;96.10;;;;;;4976698;28;20549;-91
2022/02/08 19:46:48;;;;;;;8.83;7.07;;;7.90;96.10;;;;;;4977402;28;20174;-91
2022/02/08 19:49:14;;;;;;;9.63;7.60;;;7.90;96.20;;;;;;4994150;28;20189;-91
2022/02/08 19:51:40;;;;;;;9.60;7.77;;;7.90;96.10;;;;;;4976428;28;20193;-91
2022/02/08 19:54:08;;;;;;;11.07;7.77;;;7.90;96.20;;;;;;4994043;28;20181;-91
2022/02/08 19:56:46;;;;;;;10.90;8.20;;;7.90;96.20;;;;;;4980353;28;20178;-91
2022/02/08 19:59:19;;;;;;;11.87;8.97;;;7.90;96.20;;;;;;4980742;28;20169;-90
2022/02/08 20:01:48;;;;;;;11.80;9.03;;;7.90;96.20;;;;;;4981312;28;20204;-91
2022/02/08 20:04:18;;;;;;;13.33;10.53;;;7.90;96.20;;;;;;4981627;28;20194;-91
2022/02/08 20:06:45;;;;;;;16.07;11.37;;;7.90;96.20;;;;;;4980729;28;20710;-91
2022/02/08 20:09:12;;;;;;;15.07;11.63;;;7.90;96.20;;;;;;4980518;28;20178;-91
2022/02/08 20:11:38;;;;;;;17.13;11.43;;;7.90;96.20;;;;;;4980519;28;20221;-91
2022/02/08 20:14:07;;;;;;;20.27;13.50;;;7.90;96.30;;;;;;4980288;28;20186;-90
2022/02/08 20:16:34;;;;;;;18.60;12.97;;;7.90;96.30;;;;;;4980390;28;20189;-91
2022/02/08 20:19:02;;;;;;;21.53;13.70;;;8.00;96.30;;;;;;4980583;28;20547;-91
2022/02/08 20:21:30;;;;;;;19.37;12.70;;;8.00;96.30;;;;;;4980291;28;20198;-91
2022/02/08 20:23:59;;;;;;;19.03;12.60;;;8.00;96.40;;;;;;4980786;28;20224;-91
2022/02/08 20:26:32;;;;;;;21.80;13.97;;;8.00;96.40;;;;;;4980133;28;20174;-91
2022/02/08 20:28:58;;;;;;;19.90;13.33;;;8.00;96.40;;;;;;4980015;28;20257;-91
2022/02/08 20:31:25;;;;;;;19.17;12.53;;;8.10;96.40;;;;;;4980425;28;20273;-90
2022/02/08 20:33:51;;;;;;;18.07;12.73;;;8.10;96.40;;;;;;4980001;28;20182;-91
2022/02/08 20:36:18;;;;;;;18.57;12.27;;;8.20;96.40;;;;;;4980224;28;20178;-91
2022/02/08 20:38:48;;;;;;;20.57;13.20;;;8.20;96.40;;;;;;4980234;28;20362;-90
2022/02/08 20:41:22;;;;;;;19.33;13.47;;;8.20;96.40;;;;;;4980223;28;20175;-91
2022/02/08 20:43:49;;;;;;;17.27;11.37;;;8.20;96.40;;;;;;4979809;28;20186;-90
2022/02/08 20:46:16;;;;;;;17.27;12.33;;;8.20;96.40;;;;;;4997058;28;20228;-90
2022/02/08 20:48:43;;;;;;;19.87;13.80;;;8.20;96.40;;;;;;4979961;28;20182;-91
2022/02/08 20:51:09;;;;;;;22.10;14.67;;;8.20;96.40;;;;;;4979712;28;20269;-90
2022/02/08 20:53:51;;;;;;;20.50;14.23;;;8.20;96.40;;;;;;4996952;28;20197;-90
2022/02/08 20:59:04;;;;;;;23.07;16.17;;;8.30;96.40;;;;;;4997261;28;20164;-91
2022/02/08 21:01:37;;;;;;;22.17;16.43;;;8.30;96.40;;;;;;4980030;28;20197;-91
2022/02/08 21:04:08;;;;;;;26.83;17.53;;;8.30;96.40;;;;;;4979718;28;20194;-91
2022/02/08 21:06:38;;;;;;;19.03;12.33;;;8.20;96.40;;;;;;4981040;28;20178;-93
2022/02/08 21:09:05;;;;;;;26.77;19.37;;;8.30;96.40;;;;;;4980010;28;20182;-92
2022/02/08 21:11:36;;;;;;;20.17;14.00;;;8.30;96.40;;;;;;4979661;28;20695;-91
2022/02/08 21:14:07;;;;;;;25.43;17.30;;;8.30;96.40;;;;;;4980588;28;20170;-92
2022/02/08 21:16:45;;;;;;;26.90;17.80;;;8.30;96.40;;;;;;4979439;28;20178;-92
2022/02/08 21:19:14;;;;;;;22.97;14.40;;;8.30;96.40;;;;;;4996710;28;20160;-91
2022/02/08 21:21:40;;;;;;;24.10;17.23;;;8.30;96.40;;;;;;4996717;28;20194;-91
2022/02/08 21:24:07;;;;;;;22.60;16.97;;;8.30;96.30;;;;;;4979911;28;20202;-92
2022/02/08 21:26:38;;;;;;;16.17;11.50;;;8.30;96.30;;;;;;4996877;28;20177;-91
2022/02/08 21:53:29;;;;;;;19.03;12.80;;;8.30;96.30;;;;;;4996343;28;20611;-91
2022/02/08 21:55:58;;;;;;;24.67;14.67;;;8.30;96.30;;;;;;4995803;28;20629;-91
2022/02/08 21:58:27;;;;;;;22.40;14.43;;;8.40;96.30;;;;;;4996598;28;20635;-91
2022/02/08 22:00:55;;;;;;;23.63;16.20;;;8.40;96.20;;;;;;4995980;28;20329;-91
2022/02/08 22:03:21;;;;;;;21.40;14.37;;;8.40;96.20;;;;;;4978712;28;20202;-92
2022/02/08 22:05:47;;;;;;;23.20;14.87;;;8.30;96.20;;;;;;4979170;28;20175;-91